sensor_id;sensor_type;location;lat;lon;timestamp;P1;durP1;ratioP1;P2;durP2;ratioP2
71413;SDS011;59226;53.212;5.728;2023-05-10T00:04:17;1.17;;;0.57;;
71413;SDS011;59226;53.212;5.728;2023-05-10T00:06:42;3.63;;;1.27;;
71413;SDS011;59226;53.212;5.728;2023-05-10T00:09:07;1.57;;;0.60;;
71413;SDS011;59226;53.212;5.728;2023-05-10T00:11:33;2.43;;;0.80;;
71413;SDS011;59226;53.212;5.728;2023-05-10T00:13:58;4.17;;;1.47;;
71413;SDS011;59226;53.212;5.728;2023-05-10T00:16:23;2.63;;;1.10;;
71413;SDS011;59226;53.212;5.728;2023-05-10T00:18:48;2.50;;;1.13;;
71413;SDS011;59226;53.212;5.728;2023-05-10T00:21:14;1.87;;;1.00;;
71413;SDS011;59226;53.212;5.728;2023-05-10T00:23:39;2.25;;;1.02;;
71413;SDS011;59226;53.212;5.728;2023-05-10T00:26:04;1.40;;;0.80;;
71413;SDS011;59226;53.212;5.728;2023-05-10T00:28:30;2.50;;;1.20;;
71413;SDS011;59226;53.212;5.728;2023-05-10T00:30:55;2.90;;;1.00;;
71413;SDS011;59226;53.212;5.728;2023-05-10T00:33:20;2.00;;;0.93;;
71413;SDS011;59226;53.212;5.728;2023-05-10T00:35:45;1.40;;;0.67;;
71413;SDS011;59226;53.212;5.728;2023-05-10T00:38:11;1.73;;;0.60;;
71413;SDS011;59226;53.212;5.728;2023-05-10T00:40:36;2.77;;;1.33;;
71413;SDS011;59226;53.212;5.728;2023-05-10T00:43:02;3.15;;;1.35;;
71413;SDS011;59226;53.212;5.728;2023-05-10T00:45:28;7.27;;;2.73;;
71413;SDS011;59226;53.212;5.728;2023-05-10T00:47:53;9.27;;;2.57;;
71413;SDS011;59226;53.212;5.728;2023-05-10T00:50:20;3.10;;;1.47;;
71413;SDS011;59226;53.212;5.728;2023-05-10T00:52:45;7.00;;;3.28;;
71413;SDS011;59226;53.212;5.728;2023-05-10T00:55:11;7.00;;;2.60;;
71413;SDS011;59226;53.212;5.728;2023-05-10T00:57:37;5.78;;;2.95;;
71413;SDS011;59226;53.212;5.728;2023-05-10T01:00:02;9.77;;;3.17;;
71413;SDS011;59226;53.212;5.728;2023-05-10T01:02:27;9.57;;;3.37;;
71413;SDS011;59226;53.212;5.728;2023-05-10T01:04:53;8.00;;;2.60;;
71413;SDS011;59226;53.212;5.728;2023-05-10T01:07:19;12.70;;;3.00;;
71413;SDS011;59226;53.212;5.728;2023-05-10T01:09:44;7.50;;;2.30;;
71413;SDS011;59226;53.212;5.728;2023-05-10T01:12:10;8.48;;;3.75;;
71413;SDS011;59226;53.212;5.728;2023-05-10T01:14:35;5.80;;;2.43;;
71413;SDS011;59226;53.212;5.728;2023-05-10T01:17:01;6.90;;;2.60;;
71413;SDS011;59226;53.212;5.728;2023-05-10T01:19:28;9.07;;;3.13;;
71413;SDS011;59226;53.212;5.728;2023-05-10T01:27:26;14.48;;;3.70;;
71413;SDS011;59226;53.212;5.728;2023-05-10T01:37:41;5.67;;;2.80;;
71413;SDS011;59226;53.212;5.728;2023-05-10T01:42:36;5.13;;;2.47;;
71413;SDS011;59226;53.212;5.728;2023-05-10T01:45:09;7.80;;;4.20;;
71413;SDS011;59226;53.212;5.728;2023-05-10T01:50:22;8.85;;;3.30;;
71413;SDS011;59226;53.212;5.728;2023-05-10T01:52:53;8.70;;;3.80;;
71413;SDS011;59226;53.212;5.728;2023-05-10T01:55:20;7.97;;;3.22;;
71413;SDS011;59226;53.212;5.728;2023-05-10T01:57:46;3.55;;;1.65;;
71413;SDS011;59226;53.212;5.728;2023-05-10T02:00:13;7.22;;;2.30;;
71413;SDS011;59226;53.212;5.728;2023-05-10T02:02:40;4.55;;;2.30;;
71413;SDS011;59226;53.212;5.728;2023-05-10T02:05:07;4.70;;;1.87;;
71413;SDS011;59226;53.212;5.728;2023-05-10T02:07:34;2.70;;;1.45;;
71413;SDS011;59226;53.212;5.728;2023-05-10T02:10:00;5.50;;;1.80;;
71413;SDS011;59226;53.212;5.728;2023-05-10T02:12:26;2.80;;;1.30;;
71413;SDS011;59226;53.212;5.728;2023-05-10T02:14:53;3.00;;;1.10;;
71413;SDS011;59226;53.212;5.728;2023-05-10T02:17:18;1.10;;;0.47;;
71413;SDS011;59226;53.212;5.728;2023-05-10T02:19:44;2.87;;;1.20;;
71413;SDS011;59226;53.212;5.728;2023-05-10T02:22:10;0.73;;;0.32;;
71413;SDS011;59226;53.212;5.728;2023-05-10T02:24:36;0.80;;;0.32;;
71413;SDS011;59226;53.212;5.728;2023-05-10T02:27:03;0.52;;;0.30;;
71413;SDS011;59226;53.212;5.728;2023-05-10T02:29:29;0.70;;;0.30;;
71413;SDS011;59226;53.212;5.728;2023-05-10T02:31:56;1.70;;;0.68;;
71413;SDS011;59226;53.212;5.728;2023-05-10T02:34:22;0.60;;;0.40;;
71413;SDS011;59226;53.212;5.728;2023-05-10T02:36:48;0.52;;;0.30;;
71413;SDS011;59226;53.212;5.728;2023-05-10T02:39:15;0.50;;;0.30;;
71413;SDS011;59226;53.212;5.728;2023-05-10T02:41:41;0.50;;;0.37;;
71413;SDS011;59226;53.212;5.728;2023-05-10T02:44:07;0.52;;;0.32;;
71413;SDS011;59226;53.212;5.728;2023-05-10T02:46:33;0.53;;;0.30;;
71413;SDS011;59226;53.212;5.728;2023-05-10T02:48:58;0.98;;;0.40;;
71413;SDS011;59226;53.212;5.728;2023-05-10T02:51:28;0.67;;;0.33;;
71413;SDS011;59226;53.212;5.728;2023-05-10T02:53:56;0.70;;;0.30;;
71413;SDS011;59226;53.212;5.728;2023-05-10T02:56:27;0.70;;;0.40;;
71413;SDS011;59226;53.212;5.728;2023-05-10T02:58:53;0.77;;;0.32;;
71413;SDS011;59226;53.212;5.728;2023-05-10T03:01:18;1.03;;;0.40;;
71413;SDS011;59226;53.212;5.728;2023-05-10T03:03:44;0.20;;;0.20;;
71413;SDS011;59226;53.212;5.728;2023-05-10T03:06:09;0.97;;;0.50;;
71413;SDS011;59226;53.212;5.728;2023-05-10T03:08:34;0.70;;;0.40;;
71413;SDS011;59226;53.212;5.728;2023-05-10T03:16:24;0.70;;;0.40;;
71413;SDS011;59226;53.212;5.728;2023-05-10T03:19:01;0.70;;;0.30;;
71413;SDS011;59226;53.212;5.728;2023-05-10T03:21:29;0.82;;;0.40;;
71413;SDS011;59226;53.212;5.728;2023-05-10T03:24:05;0.40;;;0.30;;
71413;SDS011;59226;53.212;5.728;2023-05-10T03:26:31;1.20;;;0.30;;
71413;SDS011;59226;53.212;5.728;2023-05-10T03:28:57;0.50;;;0.30;;
71413;SDS011;59226;53.212;5.728;2023-05-10T03:31:24;0.57;;;0.40;;
71413;SDS011;59226;53.212;5.728;2023-05-10T03:33:49;0.50;;;0.30;;
71413;SDS011;59226;53.212;5.728;2023-05-10T03:36:14;0.87;;;0.40;;
71413;SDS011;59226;53.212;5.728;2023-05-10T03:38:40;0.67;;;0.30;;
71413;SDS011;59226;53.212;5.728;2023-05-10T03:41:05;0.43;;;0.30;;
71413;SDS011;59226;53.212;5.728;2023-05-10T03:43:30;0.40;;;0.30;;
71413;SDS011;59226;53.212;5.728;2023-05-10T03:45:55;0.47;;;0.30;;
71413;SDS011;59226;53.212;5.728;2023-05-10T03:48:21;2.23;;;0.40;;
71413;SDS011;59226;53.212;5.728;2023-05-10T03:50:46;1.07;;;0.50;;
71413;SDS011;59226;53.212;5.728;2023-05-10T03:53:11;0.87;;;0.30;;
71413;SDS011;59226;53.212;5.728;2023-05-10T03:55:37;1.35;;;0.50;;
71413;SDS011;59226;53.212;5.728;2023-05-10T03:58:02;0.87;;;0.57;;
71413;SDS011;59226;53.212;5.728;2023-05-10T04:00:27;0.80;;;0.40;;
71413;SDS011;59226;53.212;5.728;2023-05-10T04:02:53;0.87;;;0.33;;
71413;SDS011;59226;53.212;5.728;2023-05-10T04:05:18;1.17;;;0.40;;
71413;SDS011;59226;53.212;5.728;2023-05-10T04:07:43;0.43;;;0.30;;
71413;SDS011;59226;53.212;5.728;2023-05-10T04:10:09;0.70;;;0.40;;
71413;SDS011;59226;53.212;5.728;2023-05-10T04:12:34;2.23;;;0.77;;
71413;SDS011;59226;53.212;5.728;2023-05-10T04:14:59;0.70;;;0.40;;
71413;SDS011;59226;53.212;5.728;2023-05-10T04:17:25;1.27;;;0.40;;
71413;SDS011;59226;53.212;5.728;2023-05-10T04:19:50;0.93;;;0.33;;
71413;SDS011;59226;53.212;5.728;2023-05-10T04:22:18;0.65;;;0.35;;
71413;SDS011;59226;53.212;5.728;2023-05-10T04:24:43;0.83;;;0.40;;
71413;SDS011;59226;53.212;5.728;2023-05-10T04:27:08;0.63;;;0.40;;
71413;SDS011;59226;53.212;5.728;2023-05-10T04:29:33;1.80;;;0.60;;
71413;SDS011;59226;53.212;5.728;2023-05-10T04:31:58;1.90;;;0.93;;
71413;SDS011;59226;53.212;5.728;2023-05-10T04:34:24;2.33;;;0.90;;
71413;SDS011;59226;53.212;5.728;2023-05-10T04:36:49;4.77;;;1.40;;
71413;SDS011;59226;53.212;5.728;2023-05-10T04:39:14;0.90;;;0.50;;
71413;SDS011;59226;53.212;5.728;2023-05-10T04:41:39;1.53;;;0.73;;
71413;SDS011;59226;53.212;5.728;2023-05-10T04:44:05;1.47;;;0.80;;
71413;SDS011;59226;53.212;5.728;2023-05-10T04:46:30;2.30;;;1.10;;
71413;SDS011;59226;53.212;5.728;2023-05-10T04:48:55;2.23;;;1.00;;
71413;SDS011;59226;53.212;5.728;2023-05-10T04:51:20;2.70;;;1.20;;
71413;SDS011;59226;53.212;5.728;2023-05-10T04:53:46;3.87;;;1.50;;
71413;SDS011;59226;53.212;5.728;2023-05-10T04:56:11;2.63;;;1.07;;
71413;SDS011;59226;53.212;5.728;2023-05-10T04:58:36;1.50;;;0.70;;
71413;SDS011;59226;53.212;5.728;2023-05-10T05:01:05;3.33;;;1.23;;
71413;SDS011;59226;53.212;5.728;2023-05-10T05:03:32;1.02;;;0.52;;
71413;SDS011;59226;53.212;5.728;2023-05-10T05:05:57;2.37;;;0.87;;
71413;SDS011;59226;53.212;5.728;2023-05-10T05:08:22;2.25;;;0.90;;
71413;SDS011;59226;53.212;5.728;2023-05-10T05:10:48;2.17;;;0.80;;
71413;SDS011;59226;53.212;5.728;2023-05-10T05:13:15;2.50;;;1.05;;
71413;SDS011;59226;53.212;5.728;2023-05-10T05:15:40;2.10;;;0.83;;
71413;SDS011;59226;53.212;5.728;2023-05-10T05:18:05;3.73;;;1.10;;
71413;SDS011;59226;53.212;5.728;2023-05-10T05:20:34;2.07;;;0.83;;
71413;SDS011;59226;53.212;5.728;2023-05-10T05:22:59;2.23;;;0.93;;
71413;SDS011;59226;53.212;5.728;2023-05-10T05:25:25;3.53;;;1.10;;
71413;SDS011;59226;53.212;5.728;2023-05-10T05:27:50;2.17;;;1.10;;
71413;SDS011;59226;53.212;5.728;2023-05-10T05:30:15;2.37;;;0.73;;
71413;SDS011;59226;53.212;5.728;2023-05-10T05:32:40;2.43;;;0.67;;
71413;SDS011;59226;53.212;5.728;2023-05-10T05:35:06;1.73;;;0.87;;
71413;SDS011;59226;53.212;5.728;2023-05-10T05:37:31;2.13;;;0.77;;
71413;SDS011;59226;53.212;5.728;2023-05-10T05:39:57;1.58;;;0.47;;
71413;SDS011;59226;53.212;5.728;2023-05-10T05:42:22;0.73;;;0.30;;
71413;SDS011;59226;53.212;5.728;2023-05-10T05:44:47;2.50;;;0.90;;
71413;SDS011;59226;53.212;5.728;2023-05-10T05:47:12;1.17;;;0.50;;
71413;SDS011;59226;53.212;5.728;2023-05-10T05:49:38;0.30;;;0.30;;
71413;SDS011;59226;53.212;5.728;2023-05-10T05:52:04;1.08;;;0.50;;
71413;SDS011;59226;53.212;5.728;2023-05-10T05:54:29;0.67;;;0.30;;
71413;SDS011;59226;53.212;5.728;2023-05-10T05:56:55;0.73;;;0.38;;
71413;SDS011;59226;53.212;5.728;2023-05-10T05:59:21;1.90;;;0.50;;
71413;SDS011;59226;53.212;5.728;2023-05-10T06:01:46;0.95;;;0.60;;
71413;SDS011;59226;53.212;5.728;2023-05-10T06:04:11;2.80;;;1.03;;
71413;SDS011;59226;53.212;5.728;2023-05-10T06:06:37;4.53;;;0.93;;
71413;SDS011;59226;53.212;5.728;2023-05-10T06:09:02;2.90;;;0.90;;
71413;SDS011;59226;53.212;5.728;2023-05-10T06:11:28;1.57;;;0.50;;
71413;SDS011;59226;53.212;5.728;2023-05-10T06:13:53;1.40;;;0.43;;
71413;SDS011;59226;53.212;5.728;2023-05-10T06:16:18;2.20;;;0.67;;
71413;SDS011;59226;53.212;5.728;2023-05-10T06:18:43;1.87;;;0.60;;
71413;SDS011;59226;53.212;5.728;2023-05-10T06:21:09;1.53;;;0.60;;
71413;SDS011;59226;53.212;5.728;2023-05-10T06:23:34;1.60;;;0.60;;
71413;SDS011;59226;53.212;5.728;2023-05-10T06:25:59;1.33;;;0.70;;
71413;SDS011;59226;53.212;5.728;2023-05-10T06:28:24;1.57;;;0.50;;
71413;SDS011;59226;53.212;5.728;2023-05-10T06:30:50;1.63;;;0.87;;
71413;SDS011;59226;53.212;5.728;2023-05-10T06:33:15;2.03;;;0.70;;
71413;SDS011;59226;53.212;5.728;2023-05-10T06:35:41;1.70;;;0.70;;
71413;SDS011;59226;53.212;5.728;2023-05-10T06:38:06;1.38;;;0.47;;
71413;SDS011;59226;53.212;5.728;2023-05-10T06:40:31;3.17;;;1.20;;
71413;SDS011;59226;53.212;5.728;2023-05-10T06:42:57;1.85;;;0.90;;
71413;SDS011;59226;53.212;5.728;2023-05-10T06:45:23;5.00;;;1.33;;
71413;SDS011;59226;53.212;5.728;2023-05-10T06:47:48;3.40;;;1.27;;
71413;SDS011;59226;53.212;5.728;2023-05-10T06:50:13;2.97;;;1.20;;
71413;SDS011;59226;53.212;5.728;2023-05-10T06:52:38;2.67;;;1.00;;
71413;SDS011;59226;53.212;5.728;2023-05-10T06:55:04;1.80;;;0.80;;
71413;SDS011;59226;53.212;5.728;2023-05-10T06:57:29;3.20;;;1.17;;
71413;SDS011;59226;53.212;5.728;2023-05-10T06:59:55;2.78;;;0.75;;
71413;SDS011;59226;53.212;5.728;2023-05-10T07:02:21;1.87;;;0.90;;
71413;SDS011;59226;53.212;5.728;2023-05-10T07:04:47;2.80;;;0.90;;
71413;SDS011;59226;53.212;5.728;2023-05-10T07:07:13;2.35;;;1.05;;
71413;SDS011;59226;53.212;5.728;2023-05-10T07:09:39;3.15;;;1.13;;
71413;SDS011;59226;53.212;5.728;2023-05-10T07:12:04;3.13;;;1.03;;
71413;SDS011;59226;53.212;5.728;2023-05-10T07:14:30;4.67;;;1.70;;
71413;SDS011;59226;53.212;5.728;2023-05-10T07:16:56;2.57;;;0.70;;
71413;SDS011;59226;53.212;5.728;2023-05-10T07:19:21;1.90;;;0.63;;
71413;SDS011;59226;53.212;5.728;2023-05-10T07:21:46;1.33;;;0.40;;
71413;SDS011;59226;53.212;5.728;2023-05-10T07:24:12;3.00;;;0.90;;
71413;SDS011;59226;53.212;5.728;2023-05-10T07:26:37;3.17;;;1.17;;
71413;SDS011;59226;53.212;5.728;2023-05-10T07:29:02;2.40;;;0.90;;
71413;SDS011;59226;53.212;5.728;2023-05-10T07:31:27;3.07;;;1.33;;
71413;SDS011;59226;53.212;5.728;2023-05-10T07:33:53;3.23;;;1.00;;
71413;SDS011;59226;53.212;5.728;2023-05-10T07:36:18;2.63;;;1.10;;
71413;SDS011;59226;53.212;5.728;2023-05-10T07:38:43;2.20;;;1.17;;
71413;SDS011;59226;53.212;5.728;2023-05-10T07:41:09;3.27;;;1.50;;
71413;SDS011;59226;53.212;5.728;2023-05-10T07:43:34;4.35;;;1.45;;
71413;SDS011;59226;53.212;5.728;2023-05-10T07:45:59;2.60;;;0.87;;
71413;SDS011;59226;53.212;5.728;2023-05-10T07:48:25;3.20;;;1.03;;
71413;SDS011;59226;53.212;5.728;2023-05-10T07:50:50;3.17;;;1.17;;
71413;SDS011;59226;53.212;5.728;2023-05-10T07:53:16;4.03;;;1.40;;
71413;SDS011;59226;53.212;5.728;2023-05-10T07:55:41;2.07;;;1.00;;
71413;SDS011;59226;53.212;5.728;2023-05-10T07:58:07;5.60;;;1.37;;
71413;SDS011;59226;53.212;5.728;2023-05-10T08:00:32;3.03;;;1.37;;
71413;SDS011;59226;53.212;5.728;2023-05-10T08:02:57;2.37;;;1.20;;
71413;SDS011;59226;53.212;5.728;2023-05-10T08:05:22;3.30;;;1.10;;
71413;SDS011;59226;53.212;5.728;2023-05-10T08:07:48;2.57;;;1.13;;
71413;SDS011;59226;53.212;5.728;2023-05-10T08:10:13;3.20;;;1.10;;
71413;SDS011;59226;53.212;5.728;2023-05-10T08:12:38;2.73;;;1.00;;
71413;SDS011;59226;53.212;5.728;2023-05-10T08:15:04;2.40;;;0.90;;
71413;SDS011;59226;53.212;5.728;2023-05-10T08:17:29;5.80;;;1.90;;
71413;SDS011;59226;53.212;5.728;2023-05-10T08:19:54;4.80;;;1.47;;
71413;SDS011;59226;53.212;5.728;2023-05-10T08:22:20;7.10;;;1.57;;
71413;SDS011;59226;53.212;5.728;2023-05-10T08:24:45;4.37;;;1.60;;
71413;SDS011;59226;53.212;5.728;2023-05-10T08:27:10;5.63;;;1.60;;
71413;SDS011;59226;53.212;5.728;2023-05-10T08:29:35;2.93;;;1.27;;
71413;SDS011;59226;53.212;5.728;2023-05-10T08:32:01;6.43;;;1.97;;
71413;SDS011;59226;53.212;5.728;2023-05-10T08:34:26;6.13;;;1.60;;
71413;SDS011;59226;53.212;5.728;2023-05-10T08:36:52;3.27;;;1.50;;
71413;SDS011;59226;53.212;5.728;2023-05-10T08:39:17;4.43;;;1.63;;
71413;SDS011;59226;53.212;5.728;2023-05-10T08:41:43;5.47;;;1.95;;
71413;SDS011;59226;53.212;5.728;2023-05-10T08:44:09;4.35;;;1.73;;
71413;SDS011;59226;53.212;5.728;2023-05-10T08:46:34;3.97;;;1.50;;
71413;SDS011;59226;53.212;5.728;2023-05-10T08:49:03;3.40;;;1.48;;
71413;SDS011;59226;53.212;5.728;2023-05-10T08:51:29;3.70;;;1.47;;
71413;SDS011;59226;53.212;5.728;2023-05-10T08:53:57;5.55;;;1.67;;
71413;SDS011;59226;53.212;5.728;2023-05-10T08:56:22;4.37;;;1.73;;
71413;SDS011;59226;53.212;5.728;2023-05-10T08:58:48;6.07;;;2.25;;
71413;SDS011;59226;53.212;5.728;2023-05-10T09:01:14;8.05;;;2.20;;
71413;SDS011;59226;53.212;5.728;2023-05-10T09:03:41;4.82;;;1.65;;
71413;SDS011;59226;53.212;5.728;2023-05-10T09:06:06;4.07;;;1.87;;
71413;SDS011;59226;53.212;5.728;2023-05-10T09:08:32;4.57;;;1.73;;
71413;SDS011;59226;53.212;5.728;2023-05-10T09:10:58;5.73;;;2.40;;
71413;SDS011;59226;53.212;5.728;2023-05-10T09:13:26;4.53;;;1.48;;
71413;SDS011;59226;53.212;5.728;2023-05-10T09:15:51;6.13;;;2.07;;
71413;SDS011;59226;53.212;5.728;2023-05-10T09:18:16;5.03;;;1.87;;
71413;SDS011;59226;53.212;5.728;2023-05-10T09:20:42;3.20;;;1.30;;
71413;SDS011;59226;53.212;5.728;2023-05-10T09:23:07;4.70;;;1.50;;
71413;SDS011;59226;53.212;5.728;2023-05-10T09:25:33;3.57;;;1.43;;
71413;SDS011;59226;53.212;5.728;2023-05-10T09:27:58;4.73;;;1.80;;
71413;SDS011;59226;53.212;5.728;2023-05-10T09:32:49;4.70;;;1.40;;
71413;SDS011;59226;53.212;5.728;2023-05-10T09:35:15;5.97;;;1.88;;
71413;SDS011;59226;53.212;5.728;2023-05-10T09:37:42;4.83;;;1.87;;
71413;SDS011;59226;53.212;5.728;2023-05-10T09:40:08;6.57;;;2.10;;
71413;SDS011;59226;53.212;5.728;2023-05-10T09:42:36;5.57;;;1.98;;
71413;SDS011;59226;53.212;5.728;2023-05-10T09:45:04;5.63;;;2.07;;
71413;SDS011;59226;53.212;5.728;2023-05-10T09:47:36;5.35;;;1.98;;
71413;SDS011;59226;53.212;5.728;2023-05-10T09:50:02;6.10;;;1.95;;
71413;SDS011;59226;53.212;5.728;2023-05-10T09:52:45;4.53;;;1.80;;
71413;SDS011;59226;53.212;5.728;2023-05-10T09:55:11;5.97;;;2.42;;
71413;SDS011;59226;53.212;5.728;2023-05-10T09:57:37;5.25;;;2.03;;
71413;SDS011;59226;53.212;5.728;2023-05-10T10:00:02;9.50;;;3.20;;
71413;SDS011;59226;53.212;5.728;2023-05-10T10:02:29;6.72;;;2.70;;
71413;SDS011;59226;53.212;5.728;2023-05-10T10:04:54;9.37;;;2.23;;
71413;SDS011;59226;53.212;5.728;2023-05-10T10:07:22;8.90;;;3.00;;
71413;SDS011;59226;53.212;5.728;2023-05-10T10:09:47;6.22;;;2.15;;
71413;SDS011;59226;53.212;5.728;2023-05-10T10:12:12;5.33;;;2.17;;
71413;SDS011;59226;53.212;5.728;2023-05-10T10:14:38;8.10;;;2.83;;
71413;SDS011;59226;53.212;5.728;2023-05-10T10:17:03;5.73;;;2.47;;
71413;SDS011;59226;53.212;5.728;2023-05-10T10:19:28;4.00;;;1.70;;
71413;SDS011;59226;53.212;5.728;2023-05-10T10:21:55;4.03;;;1.63;;
71413;SDS011;59226;53.212;5.728;2023-05-10T10:24:20;4.63;;;1.90;;
71413;SDS011;59226;53.212;5.728;2023-05-10T10:26:45;4.67;;;2.27;;
71413;SDS011;59226;53.212;5.728;2023-05-10T10:29:20;4.47;;;1.80;;
71413;SDS011;59226;53.212;5.728;2023-05-10T10:32:07;5.75;;;2.00;;
71413;SDS011;59226;53.212;5.728;2023-05-10T10:34:34;6.50;;;2.53;;
71413;SDS011;59226;53.212;5.728;2023-05-10T10:37:04;4.18;;;1.20;;
71413;SDS011;59226;53.212;5.728;2023-05-10T10:39:29;1.67;;;0.97;;
71413;SDS011;59226;53.212;5.728;2023-05-10T10:41:56;6.07;;;1.80;;
71413;SDS011;59226;53.212;5.728;2023-05-10T10:49:25;2.58;;;1.25;;
71413;SDS011;59226;53.212;5.728;2023-05-10T11:00:29;4.17;;;1.50;;
71413;SDS011;59226;53.212;5.728;2023-05-10T11:08:06;7.47;;;2.80;;
71413;SDS011;59226;53.212;5.728;2023-05-10T11:10:32;5.28;;;1.90;;
71413;SDS011;59226;53.212;5.728;2023-05-10T11:13:04;3.83;;;1.40;;
71413;SDS011;59226;53.212;5.728;2023-05-10T11:15:34;3.83;;;1.67;;
71413;SDS011;59226;53.212;5.728;2023-05-10T11:18:00;4.00;;;1.40;;
71413;SDS011;59226;53.212;5.728;2023-05-10T11:20:41;5.97;;;2.10;;
71413;SDS011;59226;53.212;5.728;2023-05-10T11:23:13;7.10;;;2.27;;
71413;SDS011;59226;53.212;5.728;2023-05-10T11:25:44;3.58;;;1.77;;
71413;SDS011;59226;53.212;5.728;2023-05-10T11:28:10;6.75;;;2.00;;
71413;SDS011;59226;53.212;5.728;2023-05-10T11:30:35;6.13;;;2.63;;
71413;SDS011;59226;53.212;5.728;2023-05-10T11:33:01;6.03;;;2.30;;
71413;SDS011;59226;53.212;5.728;2023-05-10T11:35:27;5.27;;;2.13;;
71413;SDS011;59226;53.212;5.728;2023-05-10T11:37:52;6.47;;;1.90;;
71413;SDS011;59226;53.212;5.728;2023-05-10T11:40:17;5.00;;;2.23;;
71413;SDS011;59226;53.212;5.728;2023-05-10T11:42:43;7.50;;;3.30;;
71413;SDS011;59226;53.212;5.728;2023-05-10T11:45:08;10.33;;;2.43;;
71413;SDS011;59226;53.212;5.728;2023-05-10T11:47:33;7.53;;;3.95;;
71413;SDS011;59226;53.212;5.728;2023-05-10T11:50:00;5.70;;;2.43;;
71413;SDS011;59226;53.212;5.728;2023-05-10T11:52:25;5.35;;;2.53;;
71413;SDS011;59226;53.212;5.728;2023-05-10T11:54:51;6.73;;;2.77;;
71413;SDS011;59226;53.212;5.728;2023-05-10T11:57:18;7.37;;;3.00;;
71413;SDS011;59226;53.212;5.728;2023-05-10T11:59:43;5.40;;;2.28;;
71413;SDS011;59226;53.212;5.728;2023-05-10T12:02:08;6.00;;;3.33;;
71413;SDS011;59226;53.212;5.728;2023-05-10T12:04:35;6.07;;;2.47;;
71413;SDS011;59226;53.212;5.728;2023-05-10T12:07:01;5.83;;;2.83;;
71413;SDS011;59226;53.212;5.728;2023-05-10T12:09:26;8.20;;;3.10;;
71413;SDS011;59226;53.212;5.728;2023-05-10T12:11:54;5.37;;;1.70;;
71413;SDS011;59226;53.212;5.728;2023-05-10T12:14:21;5.90;;;2.17;;
71413;SDS011;59226;53.212;5.728;2023-05-10T12:16:47;4.93;;;2.45;;
71413;SDS011;59226;53.212;5.728;2023-05-10T12:19:12;5.03;;;2.23;;
71413;SDS011;59226;53.212;5.728;2023-05-10T12:21:43;4.88;;;2.20;;
71413;SDS011;59226;53.212;5.728;2023-05-10T12:24:08;6.60;;;1.95;;
71413;SDS011;59226;53.212;5.728;2023-05-10T12:26:35;5.22;;;2.17;;
71413;SDS011;59226;53.212;5.728;2023-05-10T12:31:57;4.47;;;1.90;;
71413;SDS011;59226;53.212;5.728;2023-05-10T12:34:26;3.72;;;1.50;;
71413;SDS011;59226;53.212;5.728;2023-05-10T12:36:52;7.32;;;2.63;;
71413;SDS011;59226;53.212;5.728;2023-05-10T12:39:18;6.95;;;2.38;;
71413;SDS011;59226;53.212;5.728;2023-05-10T12:41:43;4.87;;;1.90;;
71413;SDS011;59226;53.212;5.728;2023-05-10T12:44:08;5.67;;;2.33;;
71413;SDS011;59226;53.212;5.728;2023-05-10T12:46:33;7.23;;;2.67;;
71413;SDS011;59226;53.212;5.728;2023-05-10T12:48:58;6.63;;;2.37;;
71413;SDS011;59226;53.212;5.728;2023-05-10T12:51:24;7.00;;;2.50;;
71413;SDS011;59226;53.212;5.728;2023-05-10T12:53:49;8.17;;;2.90;;
71413;SDS011;59226;53.212;5.728;2023-05-10T12:56:14;8.00;;;3.03;;
71413;SDS011;59226;53.212;5.728;2023-05-10T12:58:39;10.07;;;3.07;;
71413;SDS011;59226;53.212;5.728;2023-05-10T13:01:05;9.03;;;3.73;;
71413;SDS011;59226;53.212;5.728;2023-05-10T13:03:30;5.93;;;2.80;;
71413;SDS011;59226;53.212;5.728;2023-05-10T13:05:56;8.53;;;2.77;;
71413;SDS011;59226;53.212;5.728;2023-05-10T13:08:21;8.03;;;3.10;;
71413;SDS011;59226;53.212;5.728;2023-05-10T13:10:46;6.57;;;2.70;;
71413;SDS011;59226;53.212;5.728;2023-05-10T13:13:11;7.77;;;2.70;;
71413;SDS011;59226;53.212;5.728;2023-05-10T13:15:37;6.53;;;2.83;;
71413;SDS011;59226;53.212;5.728;2023-05-10T13:18:02;7.13;;;2.60;;
71413;SDS011;59226;53.212;5.728;2023-05-10T13:20:27;5.33;;;2.10;;
71413;SDS011;59226;53.212;5.728;2023-05-10T13:22:52;6.17;;;2.30;;
71413;SDS011;59226;53.212;5.728;2023-05-10T13:25:18;5.47;;;1.73;;
71413;SDS011;59226;53.212;5.728;2023-05-10T13:27:43;5.25;;;2.13;;
71413;SDS011;59226;53.212;5.728;2023-05-10T13:30:09;5.57;;;2.30;;
71413;SDS011;59226;53.212;5.728;2023-05-10T13:32:34;5.60;;;2.33;;
71413;SDS011;59226;53.212;5.728;2023-05-10T13:35:00;4.05;;;1.98;;
71413;SDS011;59226;53.212;5.728;2023-05-10T13:37:26;6.90;;;2.20;;
71413;SDS011;59226;53.212;5.728;2023-05-10T13:39:51;4.13;;;1.90;;
71413;SDS011;59226;53.212;5.728;2023-05-10T13:42:16;4.47;;;1.87;;
71413;SDS011;59226;53.212;5.728;2023-05-10T13:44:42;3.95;;;1.85;;
71413;SDS011;59226;53.212;5.728;2023-05-10T13:47:07;3.80;;;1.60;;
71413;SDS011;59226;53.212;5.728;2023-05-10T13:49:33;5.27;;;1.90;;
71413;SDS011;59226;53.212;5.728;2023-05-10T13:51:59;4.85;;;1.90;;
71413;SDS011;59226;53.212;5.728;2023-05-10T13:54:24;4.73;;;1.97;;
71413;SDS011;59226;53.212;5.728;2023-05-10T13:56:50;3.53;;;1.77;;
71413;SDS011;59226;53.212;5.728;2023-05-10T13:59:15;3.17;;;1.27;;
71413;SDS011;59226;53.212;5.728;2023-05-10T14:01:41;4.27;;;1.73;;
71413;SDS011;59226;53.212;5.728;2023-05-10T14:04:06;3.10;;;1.33;;
71413;SDS011;59226;53.212;5.728;2023-05-10T14:06:35;4.32;;;1.88;;
71413;SDS011;59226;53.212;5.728;2023-05-10T14:09:00;3.63;;;1.43;;
71413;SDS011;59226;53.212;5.728;2023-05-10T14:11:25;5.63;;;2.37;;
71413;SDS011;59226;53.212;5.728;2023-05-10T14:13:50;4.87;;;2.00;;
71413;SDS011;59226;53.212;5.728;2023-05-10T14:16:16;3.77;;;1.60;;
71413;SDS011;59226;53.212;5.728;2023-05-10T14:18:41;5.25;;;1.98;;
71413;SDS011;59226;53.212;5.728;2023-05-10T14:21:06;4.13;;;1.97;;
71413;SDS011;59226;53.212;5.728;2023-05-10T14:23:32;5.17;;;2.30;;
71413;SDS011;59226;53.212;5.728;2023-05-10T14:25:57;5.00;;;2.10;;
71413;SDS011;59226;53.212;5.728;2023-05-10T14:28:22;5.40;;;2.07;;
71413;SDS011;59226;53.212;5.728;2023-05-10T14:30:48;3.50;;;1.40;;
71413;SDS011;59226;53.212;5.728;2023-05-10T14:33:13;5.60;;;1.73;;
71413;SDS011;59226;53.212;5.728;2023-05-10T14:35:39;6.00;;;2.37;;
71413;SDS011;59226;53.212;5.728;2023-05-10T14:38:04;3.83;;;1.60;;
71413;SDS011;59226;53.212;5.728;2023-05-10T14:40:29;6.73;;;2.30;;
71413;SDS011;59226;53.212;5.728;2023-05-10T14:42:55;4.40;;;1.90;;
71413;SDS011;59226;53.212;5.728;2023-05-10T14:45:21;3.78;;;1.60;;
71413;SDS011;59226;53.212;5.728;2023-05-10T14:47:46;4.73;;;1.83;;
71413;SDS011;59226;53.212;5.728;2023-05-10T14:50:12;2.88;;;1.20;;
71413;SDS011;59226;53.212;5.728;2023-05-10T14:52:38;4.67;;;2.13;;
71413;SDS011;59226;53.212;5.728;2023-05-10T14:55:04;4.10;;;1.50;;
71413;SDS011;59226;53.212;5.728;2023-05-10T14:57:29;6.30;;;1.80;;
71413;SDS011;59226;53.212;5.728;2023-05-10T14:59:54;4.53;;;1.77;;
71413;SDS011;59226;53.212;5.728;2023-05-10T15:02:20;5.40;;;2.40;;
71413;SDS011;59226;53.212;5.728;2023-05-10T15:04:45;3.97;;;1.67;;
71413;SDS011;59226;53.212;5.728;2023-05-10T15:07:10;6.03;;;2.90;;
71413;SDS011;59226;53.212;5.728;2023-05-10T15:09:39;4.68;;;1.92;;
71413;SDS011;59226;53.212;5.728;2023-05-10T15:12:04;4.77;;;2.00;;
71413;SDS011;59226;53.212;5.728;2023-05-10T15:14:30;5.10;;;2.08;;
71413;SDS011;59226;53.212;5.728;2023-05-10T15:16:55;5.37;;;2.00;;
71413;SDS011;59226;53.212;5.728;2023-05-10T15:19:20;6.17;;;2.97;;
71413;SDS011;59226;53.212;5.728;2023-05-10T15:21:45;5.07;;;1.90;;
71413;SDS011;59226;53.212;5.728;2023-05-10T15:24:12;5.60;;;2.28;;
71413;SDS011;59226;53.212;5.728;2023-05-10T15:26:37;5.80;;;2.00;;
71413;SDS011;59226;53.212;5.728;2023-05-10T15:29:02;5.80;;;2.47;;
71413;SDS011;59226;53.212;5.728;2023-05-10T15:31:28;8.23;;;2.87;;